Cameron, Arizona
Current Conditions -  °F | °C
As of 8:54 AM on Wednesday 22 Oct 2014 (Local Time) from KGCN Reporting Station
Smoke Smoke  
Wind Chill: 42°   Ceiling: Unl
Heat Index: 42°   Visibility: 10mi
Dew Point: 33°   Wind: 0mph
Humidity: 70%   Direction: NA
Pressure: 30.23"   Gusts: NA
Location:  35.88°N, 111.41°W
Report Text: KGCN 221454Z 00000KT 10SM FU CLR 06/01 A3023 RMK AO2 SLP202 T00560006 53012
Loading
Personal Weather Stations






























Interactive Weather Map
Tropical Storm Tracking
New forecast layout! Learn more

10-Day Weather Forecast

Advertisements
Track Severe Weather on mobile